createdAt,value
2022-09-12T00:01:31.351Z,99520.25
2022-09-12T00:04:00.309Z,99529.53
2022-09-12T00:06:29.814Z,99527.09
2022-09-12T00:08:59.173Z,99516.53
2022-09-12T00:11:26.423Z,99508.41
2022-09-12T00:13:59.427Z,99515.28
2022-09-12T00:16:27.722Z,99508.25
2022-09-12T00:18:54.495Z,99505.81
2022-09-12T00:21:22.557Z,99497.50
2022-09-12T00:23:49.914Z,99497.81
2022-09-12T00:26:17.663Z,99494.59
2022-09-12T00:28:44.700Z,99506.25
2022-09-12T00:31:15.134Z,99501.44
2022-09-12T00:33:42.259Z,99498.25
2022-09-12T00:36:15.467Z,99500.16
2022-09-12T00:38:42.953Z,99501.28
2022-09-12T00:41:22.430Z,99498.88
2022-09-12T00:43:52.183Z,99496.97
2022-09-12T00:46:43.514Z,99500.28
2022-09-12T00:49:55.737Z,99494.94
2022-09-12T00:52:35.437Z,99496.38
2022-09-12T00:55:08.158Z,99495.09
2022-09-12T00:57:41.662Z,99485.97
2022-09-12T01:00:15.714Z,99485.47
2022-09-12T01:02:45.670Z,99488.47
2022-09-12T01:05:13.743Z,99484.16
2022-09-12T01:07:41.624Z,99480.66
2022-09-12T01:10:09.761Z,99480.16
2022-09-12T01:12:39.506Z,99474.22
2022-09-12T01:15:06.599Z,99479.66
2022-09-12T01:18:25.839Z,99470.53
2022-09-12T01:21:11.217Z,99465.59
2022-09-12T01:23:49.891Z,99456.97
2022-09-12T01:26:54.070Z,99458.41
2022-09-12T01:29:26.603Z,99462.25
2022-09-12T01:32:30.271Z,99456.63
2022-09-12T01:35:29.778Z,99451.31
2022-09-12T01:38:07.462Z,99454.81
2022-09-12T01:40:45.179Z,99454.03
2022-09-12T01:43:21.423Z,99450.22
2022-09-12T01:45:58.315Z,99451.81
2022-09-12T01:48:47.314Z,99441.75
2022-09-12T01:51:26.308Z,99447.78
2022-09-12T01:54:08.691Z,99445.41
2022-09-12T01:56:39.667Z,99453.00
2022-09-12T01:59:17.162Z,99448.22
2022-09-12T02:01:55.107Z,99442.78
2022-09-12T02:04:43.247Z,99451.25
2022-09-12T02:07:20.178Z,99445.50
2022-09-12T02:09:57.010Z,99439.59
2022-09-12T02:12:29.598Z,99447.44
2022-09-12T02:15:02.516Z,99441.19
2022-09-12T02:17:32.170Z,99441.06
2022-09-12T02:20:04.805Z,99442.25
2022-09-12T02:22:32.069Z,99441.31
2022-09-12T02:25:01.115Z,99449.94
2022-09-12T02:27:30.330Z,99432.88
2022-09-12T02:29:57.007Z,99438.13
2022-09-12T02:32:36.494Z,99443.34
2022-09-12T02:35:24.539Z,99440.47
2022-09-12T02:37:53.967Z,99441.38
2022-09-12T02:40:21.061Z,99442.16
2022-09-12T02:42:47.749Z,99444.41
2022-09-12T02:45:14.461Z,99435.16
2022-09-12T02:48:14.905Z,99437.50
2022-09-12T02:50:42.085Z,99433.69
2022-09-12T02:53:10.652Z,99436.38
2022-09-12T02:55:39.412Z,99429.34
2022-09-12T02:58:13.240Z,99431.59
2022-09-12T03:01:05.183Z,99429.00
2022-09-12T03:04:09.852Z,99422.09
2022-09-12T03:06:47.118Z,99418.56
2022-09-12T03:09:22.538Z,99421.56
2022-09-12T03:11:59.050Z,99415.03
2022-09-12T03:15:01.570Z,99423.78
2022-09-12T03:17:38.164Z,99415.78
2022-09-12T03:20:24.916Z,99423.91
2022-09-12T03:22:58.713Z,99420.09
2022-09-12T03:25:51.628Z,99423.56
2022-09-12T03:28:20.108Z,99415.91
2022-09-12T03:30:48.705Z,99421.63
2022-09-12T03:33:17.984Z,99414.59
2022-09-12T03:35:45.859Z,99411.59
2022-09-12T03:38:12.895Z,99405.06
2022-09-12T03:40:40.121Z,99405.06
2022-09-12T03:43:08.220Z,99400.75
2022-09-12T03:45:36.307Z,99405.69
2022-09-12T03:48:04.250Z,99406.59
2022-09-12T03:50:30.846Z,99407.22
2022-09-12T03:52:59.677Z,99403.53
2022-09-12T03:55:26.748Z,99392.47
2022-09-12T03:57:54.185Z,99400.59
2022-09-12T04:00:20.918Z,99402.00
2022-09-12T04:02:47.482Z,99388.78
2022-09-12T04:05:14.080Z,99386.84
2022-09-12T04:07:40.756Z,99384.97
2022-09-12T04:10:09.494Z,99383.84
2022-09-12T04:12:36.680Z,99383.03
2022-09-12T04:15:03.642Z,99381.16
2022-09-12T04:17:30.137Z,99387.34
2022-09-12T04:19:56.644Z,99384.66
2022-09-12T04:22:23.296Z,99375.72
2022-09-12T04:24:49.813Z,99377.13
2022-09-12T04:27:16.517Z,99378.84
2022-09-12T04:29:43.118Z,99377.56
2022-09-12T04:32:09.665Z,99375.34
2022-09-12T04:34:36.200Z,99369.13
2022-09-12T04:37:02.749Z,99380.78
2022-09-12T04:39:29.300Z,99382.66
2022-09-12T04:41:55.922Z,99379.34
2022-09-12T04:44:22.463Z,99376.50
2022-09-12T04:46:49.419Z,99372.91
2022-09-12T04:49:16.664Z,99374.50
2022-09-12T04:51:43.617Z,99374.38
2022-09-12T04:54:16.525Z,99372.69
2022-09-12T04:56:45.646Z,99369.22
2022-09-12T04:59:14.225Z,99372.53
2022-09-12T05:01:41.454Z,99374.22
2022-09-12T05:04:10.439Z,99373.47
2022-09-12T05:06:38.309Z,99370.81
2022-09-12T05:09:06.591Z,99371.19
2022-09-12T05:12:02.670Z,99371.75
2022-09-12T05:14:23.101Z,99362.06
2022-09-12T05:16:49.925Z,99362.09
2022-09-12T05:19:17.207Z,99354.13
2022-09-12T05:21:43.750Z,99357.09
2022-09-12T05:24:11.431Z,99360.69
2022-09-12T05:26:38.119Z,99359.38
2022-09-12T05:29:07.286Z,99367.47
2022-09-12T05:31:34.839Z,99369.22
2022-09-12T05:34:01.589Z,99367.78
2022-09-12T05:36:29.654Z,99372.22
2022-09-12T05:38:56.857Z,99371.31
2022-09-12T05:41:25.781Z,99369.72
2022-09-12T05:43:54.967Z,99371.63
2022-09-12T05:46:23.321Z,99374.97
2022-09-12T05:48:55.172Z,99370.56
2022-09-12T05:51:28.386Z,99372.41
2022-09-12T05:54:00.489Z,99385.06
2022-09-12T05:56:28.044Z,99383.00
2022-09-12T05:58:57.599Z,99385.84
2022-09-12T06:01:25.013Z,99375.75
2022-09-12T06:03:54.411Z,99386.66
2022-09-12T06:06:23.403Z,99385.31
2022-09-12T06:08:52.523Z,99386.38
2022-09-12T06:11:22.990Z,99397.28
2022-09-12T06:13:51.219Z,99395.34
2022-09-12T06:16:28.995Z,99395.84
2022-09-12T06:18:58.080Z,99400.41
2022-09-12T06:21:26.643Z,99396.22
2022-09-12T06:23:56.584Z,99399.50
2022-09-12T06:26:26.156Z,99395.78
2022-09-12T06:28:54.418Z,99397.97
2022-09-12T06:31:25.199Z,99402.53
2022-09-12T06:33:53.541Z,99394.56
2022-09-12T06:36:28.758Z,99402.38
2022-09-12T06:38:57.178Z,99411.72
2022-09-12T06:41:25.471Z,99401.25
2022-09-12T06:43:52.459Z,99403.78
2022-09-12T06:46:19.205Z,99393.75
2022-09-12T06:48:45.886Z,99387.94
2022-09-12T06:51:15.719Z,99392.38
2022-09-12T06:53:44.329Z,99389.88
2022-09-12T06:56:21.785Z,99385.34
2022-09-12T06:58:50.133Z,99389.31
2022-09-12T07:01:19.051Z,99379.19
2022-09-12T07:03:57.422Z,99386.25
2022-09-12T07:06:29.851Z,99391.59
2022-09-12T07:08:58.552Z,99384.75
2022-09-12T07:11:27.470Z,99387.59
2022-09-12T07:13:56.750Z,99390.88
2022-09-12T07:16:23.734Z,99392.16
2022-09-12T07:18:52.431Z,99397.38
2022-09-12T07:21:19.393Z,99394.41
2022-09-12T07:23:46.944Z,99387.78
2022-09-12T07:26:15.506Z,99392.16
2022-09-12T07:28:42.731Z,99382.56
2022-09-12T07:31:15.359Z,99382.78
2022-09-12T07:33:43.050Z,99378.47
2022-09-12T07:36:15.015Z,99381.66
2022-09-12T07:38:42.703Z,99376.97
2022-09-12T07:41:19.696Z,99377.56
2022-09-12T07:43:46.817Z,99376.06
2022-09-12T07:46:14.470Z,99380.97
2022-09-12T07:48:41.160Z,99379.38
2022-09-12T07:51:10.778Z,99378.91
2022-09-12T07:53:41.847Z,99390.09
2022-09-12T07:56:10.405Z,99389.84
2022-09-12T07:58:38.345Z,99386.97
2022-09-12T08:01:13.771Z,99384.97
2022-09-12T08:03:42.685Z,99385.69
2022-09-12T08:06:20.275Z,99392.59
2022-09-12T08:08:48.249Z,99394.63
2022-09-12T08:11:17.025Z,99383.03
2022-09-12T08:13:44.224Z,99382.59
2022-09-12T08:16:17.952Z,99383.72
2022-09-12T08:18:45.143Z,99380.06
2022-09-12T08:21:20.931Z,99384.53
2022-09-12T08:23:48.546Z,99390.34
2022-09-12T08:26:15.071Z,99392.81
2022-09-12T08:28:45.598Z,99391.25
2022-09-12T08:31:15.731Z,99389.72
2022-09-12T08:33:42.433Z,99391.31
2022-09-12T08:36:21.489Z,99393.72
2022-09-12T08:38:50.237Z,99391.25
2022-09-12T08:41:35.149Z,99390.66
2022-09-12T08:44:04.612Z,99380.69
2022-09-12T08:46:56.786Z,99382.94
2022-09-12T08:49:39.926Z,99380.16
2022-09-12T08:52:19.488Z,99377.25
2022-09-12T08:54:46.540Z,99380.31
2022-09-12T08:57:15.087Z,99372.84
2022-09-12T08:59:46.626Z,99375.00
2022-09-12T09:02:19.174Z,99365.56
2022-09-12T09:04:52.909Z,99365.13
2022-09-12T09:07:25.983Z,99355.81
2022-09-12T09:10:16.939Z,99354.50
2022-09-12T09:13:45.357Z,99354.47
2022-09-12T09:16:53.993Z,99352.19
2022-09-12T09:19:27.710Z,99359.25
2022-09-12T09:22:18.917Z,99353.63
2022-09-12T09:25:01.406Z,99351.31
2022-09-12T09:27:42.043Z,99351.09
2022-09-12T09:30:18.119Z,99349.50
2022-09-12T09:32:50.502Z,99349.88
2022-09-12T09:35:18.891Z,99351.09
2022-09-12T09:38:00.393Z,99350.31
2022-09-12T09:40:36.432Z,99344.22
2022-09-12T09:43:22.703Z,99345.34
2022-09-12T09:45:51.847Z,99339.38
2022-09-12T09:48:24.593Z,99336.63
2022-09-12T09:50:51.871Z,99336.41
2022-09-12T09:53:32.375Z,99333.47
2022-09-12T09:56:01.719Z,99328.41
2022-09-12T09:58:35.858Z,99332.88
2022-09-12T10:01:12.179Z,99333.56
2022-09-12T10:03:40.199Z,99324.06
2022-09-12T10:06:23.473Z,99328.41
2022-09-12T10:08:50.519Z,99320.09
2022-09-12T10:11:22.941Z,99319.91
2022-09-12T10:13:56.884Z,99315.75
2022-09-12T10:16:32.719Z,99314.00
2022-09-12T10:19:03.985Z,99312.47
2022-09-12T10:21:35.820Z,99321.59
2022-09-12T10:24:14.741Z,99302.09
2022-09-12T10:26:43.333Z,99305.91
2022-09-12T10:29:21.779Z,99299.38
2022-09-12T10:31:54.894Z,99290.50
2022-09-12T10:34:25.259Z,99289.50
2022-09-12T10:36:55.792Z,99289.66
2022-09-12T10:39:22.526Z,99285.75
2022-09-12T10:41:49.039Z,99278.09
2022-09-12T10:44:18.766Z,99273.53
2022-09-12T10:46:45.642Z,99271.22
2022-09-12T10:49:26.695Z,99270.81
2022-09-12T10:51:54.760Z,99268.03
2022-09-12T10:54:26.969Z,99266.91
2022-09-12T10:57:06.637Z,99268.59
2022-09-12T10:59:58.709Z,99269.19
2022-09-12T11:02:40.403Z,99267.03
2022-09-12T11:05:22.421Z,99268.75
2022-09-12T11:07:57.026Z,99261.78
2022-09-12T11:11:08.734Z,99256.28
2022-09-12T11:13:56.985Z,99254.88
2022-09-12T11:16:48.007Z,99254.16
2022-09-12T11:19:39.415Z,99245.53
2022-09-12T11:22:20.859Z,99238.50
2022-09-12T11:25:13.823Z,99235.41
2022-09-12T11:27:59.329Z,99235.50
2022-09-12T11:30:29.010Z,99228.44
2022-09-12T11:33:30.023Z,99229.22
2022-09-12T11:35:57.845Z,99227.63
2022-09-12T11:38:43.258Z,99223.31
2022-09-12T11:41:15.422Z,99228.47
2022-09-12T11:44:18.213Z,99225.66
2022-09-12T11:46:48.758Z,99218.16
2022-09-12T11:49:29.719Z,99220.97
2022-09-12T11:52:15.875Z,99220.59
2022-09-12T11:55:00.541Z,99216.66
2022-09-12T11:57:51.039Z,99215.09
2022-09-12T12:00:20.711Z,99221.44
2022-09-12T12:03:14.395Z,99223.81
2022-09-12T12:06:07.051Z,99224.59
2022-09-12T12:08:40.440Z,99223.00
2022-09-12T12:11:10.872Z,99217.88
2022-09-12T12:13:55.675Z,99215.06
2022-09-12T12:16:29.305Z,99214.28
2022-09-12T12:18:59.643Z,99212.31
2022-09-12T12:21:29.489Z,99205.59
2022-09-12T12:24:09.536Z,99205.56
2022-09-12T12:26:39.022Z,99194.03
2022-09-12T12:29:11.208Z,99197.53
2022-09-12T12:31:59.470Z,99191.22
2022-09-12T12:34:31.046Z,99185.69
2022-09-12T12:36:59.195Z,99176.94
2022-09-12T12:39:31.706Z,99181.69
2022-09-12T12:42:01.669Z,99175.28
2022-09-12T12:44:47.319Z,99178.81
2022-09-12T12:47:23.252Z,99177.63
2022-09-12T12:49:52.794Z,99171.31
2022-09-12T12:52:19.934Z,99170.06
2022-09-12T12:54:46.462Z,99164.91
2022-09-12T12:57:12.898Z,99157.38
2022-09-12T12:59:53.449Z,99153.81
2022-09-12T13:02:33.814Z,99154.13
2022-09-12T13:05:06.209Z,99147.38
2022-09-12T13:07:40.228Z,99143.41
2022-09-12T13:10:08.352Z,99142.19
2022-09-12T13:12:45.923Z,99138.94
2022-09-12T13:15:34.191Z,99130.59
2022-09-12T13:18:12.270Z,99133.69
2022-09-12T13:20:50.610Z,99133.69
2022-09-12T13:23:29.070Z,99131.63
2022-09-12T13:25:58.918Z,99132.75
2022-09-12T13:28:30.109Z,99124.50
2022-09-12T13:31:01.993Z,99121.56
2022-09-12T13:33:37.242Z,99120.91
2022-09-12T13:36:36.087Z,99134.63
2022-09-12T13:39:24.524Z,99122.47
2022-09-12T13:42:28.700Z,99115.81
2022-09-12T13:44:58.267Z,99129.59
2022-09-12T13:47:32.617Z,99114.06
2022-09-12T13:50:01.111Z,99113.22
2022-09-12T13:52:35.268Z,99106.56
2022-09-12T13:55:07.990Z,99109.16
2022-09-12T13:57:41.188Z,99105.84
2022-09-12T14:00:20.291Z,99104.38
2022-09-12T14:02:48.502Z,99097.06
2022-09-12T14:05:25.200Z,99084.75
2022-09-12T14:07:55.317Z,99084.09
2022-09-12T14:10:30.270Z,99088.88
2022-09-12T14:12:58.784Z,99075.75
2022-09-12T14:15:29.071Z,99076.88
2022-09-12T14:18:02.221Z,99076.34
2022-09-12T14:20:34.840Z,99076.75
2022-09-12T14:23:06.279Z,99068.66
2022-09-12T14:25:37.354Z,99067.88
2022-09-12T14:28:04.982Z,99060.69
2022-09-12T14:30:36.774Z,99061.19
2022-09-12T14:33:12.255Z,99060.75
2022-09-12T14:35:43.591Z,99055.19
2022-09-12T14:38:16.609Z,99057.41
2022-09-12T14:40:48.642Z,99049.53
2022-09-12T14:43:31.877Z,99047.44
2022-09-12T14:46:02.181Z,99040.50
2022-09-12T14:48:33.147Z,99044.53
2022-09-12T14:51:01.342Z,99044.25
2022-09-12T14:53:34.483Z,99042.59
2022-09-12T14:56:12.840Z,99030.09
2022-09-12T14:58:40.987Z,99034.84
2022-09-12T15:01:07.933Z,99030.81
2022-09-12T15:03:37.333Z,99034.88
2022-09-12T15:06:07.992Z,99032.06
2022-09-12T15:08:34.923Z,99040.34
2022-09-12T15:11:01.585Z,99033.09
2022-09-12T15:13:29.007Z,99028.16
2022-09-12T15:15:57.799Z,99032.06
2022-09-12T15:18:26.879Z,99032.69
2022-09-12T15:20:57.832Z,99027.06
2022-09-12T15:23:34.993Z,99031.94
2022-09-12T15:26:02.443Z,99023.66
2022-09-12T15:28:30.966Z,99020.09
2022-09-12T15:31:00.243Z,99018.03
2022-09-12T15:33:26.886Z,99021.03
2022-09-12T15:35:53.729Z,99022.72
2022-09-12T15:38:26.166Z,99025.56
2022-09-12T15:40:53.646Z,99020.72
2022-09-12T15:43:22.423Z,99025.84
2022-09-12T15:45:51.527Z,99027.31
2022-09-12T15:48:18.880Z,99026.03
2022-09-12T15:50:45.684Z,99020.19
2022-09-12T15:53:16.149Z,99022.31
2022-09-12T15:55:43.725Z,99018.50
2022-09-12T15:58:10.859Z,99015.22
2022-09-12T16:00:37.662Z,99015.00
2022-09-12T16:03:04.868Z,99008.97
2022-09-12T16:05:31.714Z,99012.31
2022-09-12T16:07:58.255Z,99010.78
2022-09-12T16:10:29.009Z,99011.06
2022-09-12T16:12:55.984Z,99003.34
2022-09-12T16:15:24.743Z,99004.31
2022-09-12T16:17:52.262Z,99003.94
2022-09-12T16:20:19.774Z,99001.59
2022-09-12T16:22:46.379Z,99000.75
2022-09-12T16:25:13.147Z,98994.16
2022-09-12T16:27:39.985Z,98989.81
2022-09-12T16:30:08.311Z,98991.66
2022-09-12T16:32:34.867Z,99001.94
2022-09-12T16:35:02.098Z,99005.84
2022-09-12T16:37:29.018Z,99001.78
2022-09-12T16:39:55.707Z,99001.53
2022-09-12T16:42:22.503Z,99005.63
2022-09-12T16:44:49.008Z,99008.47
2022-09-12T16:47:15.613Z,99005.47
2022-09-12T16:49:42.302Z,99003.06
2022-09-12T16:52:08.947Z,98994.91
2022-09-12T16:54:35.584Z,98997.41
2022-09-12T16:57:05.118Z,98999.06
2022-09-12T16:59:31.665Z,99008.06
2022-09-12T17:01:58.226Z,99005.97
2022-09-12T17:04:24.822Z,99005.34
2022-09-12T17:06:51.376Z,99006.34
2022-09-12T17:09:18.736Z,98991.38
2022-09-12T17:11:50.394Z,98993.47
2022-09-12T17:14:17.277Z,98993.13
2022-09-12T17:16:51.399Z,98996.31
2022-09-12T17:19:26.639Z,98997.13
2022-09-12T17:21:54.055Z,99008.53
2022-09-12T17:24:21.560Z,99008.91
2022-09-12T17:26:48.193Z,99003.34
2022-09-12T17:29:15.524Z,99005.59
2022-09-12T17:31:44.137Z,99006.34
2022-09-12T17:34:14.416Z,99013.34
2022-09-12T17:36:44.369Z,99011.69
2022-09-12T17:39:13.671Z,99015.91
2022-09-12T17:41:42.933Z,99013.06
2022-09-12T17:44:13.466Z,99015.31
2022-09-12T17:46:40.624Z,99012.91
2022-09-12T17:49:11.501Z,99013.59
2022-09-12T17:51:38.100Z,99006.41
2022-09-12T17:54:11.875Z,99013.38
2022-09-12T17:56:39.171Z,99007.81
2022-09-12T17:59:08.117Z,99021.13
2022-09-12T18:01:53.936Z,99017.09
2022-09-12T18:04:20.839Z,99017.78
2022-09-12T18:06:48.884Z,99011.44
2022-09-12T18:09:25.164Z,99018.41
2022-09-12T18:11:53.040Z,99016.75
2022-09-12T18:14:20.340Z,99010.38
2022-09-12T18:16:47.708Z,99024.78
2022-09-12T18:19:14.960Z,99014.50
2022-09-12T18:21:41.774Z,99028.97
2022-09-12T18:24:10.003Z,99019.03
2022-09-12T18:26:37.018Z,99019.38
2022-09-12T18:29:04.210Z,99009.13
2022-09-12T18:31:31.080Z,99016.13
2022-09-12T18:33:59.881Z,99019.16
2022-09-12T18:36:27.619Z,99011.25
2022-09-12T18:38:54.387Z,99007.69
2022-09-12T18:41:23.077Z,99015.84
2022-09-12T18:43:54.538Z,99013.41
2022-09-12T18:46:21.234Z,99008.59
2022-09-12T18:48:47.870Z,99013.97
2022-09-12T18:51:18.371Z,99007.56
2022-09-12T18:53:52.093Z,99007.44
2022-09-12T18:56:18.795Z,98997.16
2022-09-12T18:58:49.394Z,99000.22
2022-09-12T19:01:21.349Z,98992.66
2022-09-12T19:03:48.558Z,98994.13
2022-09-12T19:06:21.351Z,98987.31
2022-09-12T19:08:49.051Z,98991.19
2022-09-12T19:11:16.659Z,98999.28
2022-09-12T19:13:45.679Z,99002.69
2022-09-12T19:16:15.949Z,99006.31
2022-09-12T19:18:43.585Z,99006.69
2022-09-12T19:21:24.837Z,99000.66
2022-09-12T19:23:53.215Z,98986.44
2022-09-12T19:26:20.806Z,98986.31
2022-09-12T19:28:48.011Z,98999.09
2022-09-12T19:31:19.028Z,98992.34
2022-09-12T19:33:46.367Z,98989.88
2022-09-12T19:36:33.974Z,98996.88
2022-09-12T19:39:01.605Z,98992.88
2022-09-12T19:41:28.135Z,99004.47
2022-09-12T19:43:57.697Z,99007.50
2022-09-12T19:46:25.728Z,99002.66
2022-09-12T19:48:52.863Z,99005.31
2022-09-12T19:51:21.290Z,99004.03
2022-09-12T19:53:50.178Z,98999.59
2022-09-12T19:56:16.998Z,99003.84
2022-09-12T19:58:46.233Z,98999.47
2022-09-12T20:01:17.036Z,98991.44
2022-09-12T20:03:44.771Z,98998.78
2022-09-12T20:06:14.200Z,99001.75
2022-09-12T20:08:42.285Z,99011.00
2022-09-12T20:11:10.567Z,99008.56
2022-09-12T20:13:37.404Z,99010.06
2022-09-12T20:16:14.998Z,99003.38
2022-09-12T20:18:44.472Z,99002.94
2022-09-12T20:21:16.412Z,99009.09
2022-09-12T20:23:43.578Z,99017.59
2022-09-12T20:26:10.933Z,99022.19
2022-09-12T20:28:38.837Z,99016.56
2022-09-12T20:31:11.997Z,99025.03
2022-09-12T20:33:39.138Z,99024.13
2022-09-12T20:36:09.381Z,99024.06
2022-09-12T20:38:36.597Z,99033.34
2022-09-12T20:41:05.613Z,99021.38
2022-09-12T20:43:32.271Z,99019.69
2022-09-12T20:45:59.043Z,99010.28
2022-09-12T20:48:25.991Z,99010.19
2022-09-12T20:50:52.513Z,99010.13
2022-09-12T20:53:19.163Z,99013.91
2022-09-12T20:55:52.997Z,99008.00
2022-09-12T20:58:21.590Z,99011.78
2022-09-12T21:00:48.773Z,99010.53
2022-09-12T21:03:16.268Z,99007.34
2022-09-12T21:05:43.761Z,99003.72
2022-09-12T21:08:10.909Z,99000.56
2022-09-12T21:10:37.698Z,99004.78
2022-09-12T21:13:04.233Z,98995.34
2022-09-12T21:15:30.769Z,98993.78
2022-09-12T21:17:57.284Z,98987.44
2022-09-12T21:20:23.818Z,98991.09
2022-09-12T21:22:50.351Z,98998.41
2022-09-12T21:25:16.891Z,99004.59
2022-09-12T21:27:43.435Z,99011.09
2022-09-12T21:30:10.422Z,99006.31
2022-09-12T21:32:37.406Z,98995.28
2022-09-12T21:35:05.156Z,98987.81
2022-09-12T21:37:32.460Z,98984.19
2022-09-12T21:39:59.431Z,98996.50
2022-09-12T21:42:26.147Z,98979.19
2022-09-12T21:44:52.865Z,98981.38
2022-09-12T21:47:19.421Z,98975.38
2022-09-12T21:49:45.915Z,98977.22
2022-09-12T21:52:12.797Z,98976.31
2022-09-12T21:54:39.551Z,98980.09
2022-09-12T21:57:06.107Z,98979.97
2022-09-12T21:59:32.690Z,98991.16
2022-09-12T22:01:59.706Z,98988.34
2022-09-12T22:04:26.539Z,98997.19
2022-09-12T22:06:53.247Z,98999.84
2022-09-12T22:09:19.843Z,98985.28
2022-09-12T22:11:46.953Z,98980.16
2022-09-12T22:14:13.667Z,98984.84
2022-09-12T22:16:40.527Z,98976.19
2022-09-12T22:19:07.113Z,98974.59
2022-09-12T22:21:33.656Z,98974.16
2022-09-12T22:24:25.975Z,98972.13
2022-09-12T22:26:52.431Z,98967.84
2022-09-12T22:29:18.997Z,98970.22
2022-09-12T22:31:45.636Z,98967.84
2022-09-12T22:34:12.215Z,98968.50
2022-09-12T22:36:39.315Z,98973.97
2022-09-12T22:39:06.582Z,98974.66
2022-09-12T22:41:33.161Z,98969.88
2022-09-12T22:43:59.837Z,98976.84
2022-09-12T22:46:26.795Z,98973.63
2022-09-12T22:48:55.605Z,98977.41
2022-09-12T22:51:22.199Z,98969.91
2022-09-12T22:53:49.020Z,98971.03
2022-09-12T22:56:15.715Z,98967.50
2022-09-12T22:58:43.366Z,98961.25
2022-09-12T23:01:10.510Z,98963.06
2022-09-12T23:03:37.482Z,98961.47
2022-09-12T23:06:05.603Z,98960.56
2022-09-12T23:08:34.717Z,98955.81
2022-09-12T23:11:13.152Z,98954.09
2022-09-12T23:13:42.811Z,98947.41
2022-09-12T23:16:15.267Z,98950.81
2022-09-12T23:18:42.054Z,98949.19
2022-09-12T23:21:10.775Z,98952.63
2022-09-12T23:23:37.837Z,98943.53
2022-09-12T23:26:19.462Z,98945.34
2022-09-12T23:28:57.673Z,98954.22
2022-09-12T23:31:29.810Z,98952.19
2022-09-12T23:33:58.631Z,98944.69
2022-09-12T23:36:26.050Z,98943.44
2022-09-12T23:38:54.043Z,98945.34
2022-09-12T23:41:22.148Z,98931.72
2022-09-12T23:43:48.702Z,98928.22
2022-09-12T23:46:16.620Z,98919.72
2022-09-12T23:48:43.711Z,98925.94
2022-09-12T23:51:11.159Z,98934.94
2022-09-12T23:53:38.496Z,98940.69
2022-09-12T23:56:06.054Z,98947.63
2022-09-12T23:58:32.579Z,98951.38
